Flight Track Log - Related Links

Times and Time Zones

All times are in EDT time to prevent confusion due to time zone crossing. See the N588WS flight status page for this flight to view local times or setup timezone preferences in your user account.

Time Position Orientation Groundspeed Altitude Reporting Facility
EDT Latitude Longitude Course Direction KTS MPH feet Rate Location/Type
Wed 08:31:30 AM 35.8481 -108.6564 20° North 243 280 12,800  Level Denver Center
Wed 08:33:00 AM 35.9077 -108.5961 22° Northeast  Level FlightAware Approximate
Wed 08:36:00 AM 35.7294 -108.6796 20° North  Level FlightAware Approximate
Wed 08:40:00 AM 36.2290 -108.4439 22° Northeast  Level FlightAware Approximate
Wed 08:41:00 AM 36.2752 -108.4233 18° North  Level FlightAware Approximate
Wed 08:42:00 AM 36.3220 -108.4046 18° North  Level FlightAware Approximate
Wed 08:43:00 AM 36.3688 -108.3858 18° North  Level FlightAware Approximate
Wed 08:44:00 AM 36.4156 -108.3671 18° North  Level FlightAware Approximate
Wed 08:45:00 AM 36.4622 -108.3477 18° North  Level FlightAware Approximate
Wed 08:46:00 AM 36.5088 -108.3283 19° North  Level FlightAware Approximate
Wed 08:47:00 AM 36.5554 -108.3089 19° North  Level FlightAware Approximate
Wed 08:48:00 AM 36.6020 -108.2895 19° North  Level FlightAware Approximate
Wed 08:49:00 AM 36.6473 -108.2659 25° Northeast  Level FlightAware Approximate
Wed 08:50:00 AM 36.6920 -108.2403 25° Northeast  Level FlightAware Approximate
Wed 08:51:00 AM 36.7333 -108.2167 25° Northeast  Level FlightAware Approximate
Wed 08:52:00 AM 36.7412 -108.2299 25° Northeast  Level Estimated
Wed 08:53:00 AM 36.7412 -108.2299 25° Northeast  Level Estimated
Wed 08:54:00 AM 36.7412 -108.2299 25° Northeast  Level Estimated
Wed 08:55:00 AM 36.7412 -108.2299 25° Northeast  Level Estimated
Wed 08:56:00 AM 36.7412 -108.2299 25° Northeast  Level Estimated
Wed 08:57:00 AM 36.7412 -108.2299 25° Northeast  Level Estimated
Wed 08:58:00 AM 36.7412 -108.2299 25° Northeast  Level Estimated
Wed 08:59:00 AM 36.7412 -108.2299 25° Northeast  Level Estimated
Wed 09:00:00 AM 36.7412 -108.2299 25° Northeast  Level Estimated
Wed 09:01:00 AM 36.7412 -108.2299 25° Northeast  Level Estimated
Wed 09:02:00 AM 36.7412 -108.2299 25° Northeast  Level Estimated
Wed 09:03:00 AM 36.7412 -108.2299 25° Northeast  Level Estimated
Wed 09:04:00 AM 36.7412 -108.2299 25° Northeast  Level Estimated
Wed 09:05:00 AM 36.7412 -108.2299 25° Northeast  Level Estimated
Wed 09:06:00 AM 36.7412 -108.2299 25° Northeast  Level Estimated
Wed 09:07:00 AM 36.7412 -108.2299 25° Northeast  Level Estimated
Wed 09:08:00 AM 36.7412 -108.2299 25° Northeast  Level Estimated
Wed 09:09:00 AM 36.7412 -108.2299 25° Northeast  Level Estimated
Wed 09:10:00 AM 36.7412 -108.2299 25° Northeast  Level Estimated
Wed 09:11:00 AM 36.7412 -108.2299 25° Northeast  Level Estimated
Wed 09:12:00 AM 36.7412 -108.2299 25° Northeast  Level Estimated
Wed 09:13:00 AM 36.7412 -108.2299 25° Northeast  Level Estimated

Login

Don't have an account? Register now (free) for customized features, flight alerts, and more!